To NAV CANADA Home Page Login to a new session Search on AWWS site Feedback and Comments Disclaimer Vers la page française équivalente Tips FAQ What's new on the site To the Forecasts and Observations / NOTAM section To "File a Flight Plan" website Publications and other links Update of the User's profile FIC Telephone Numbers My Weather Data Folder Route Weather Data Regional Weather Data Local Weather Data To the Forecasts and Observations / NOTAM section
Request Generated 12/10/2016 at 16:34:25 UTC . Weather information available at that time is displayed.

METAR/TAF

GRANDE PRAIRIE/AB    

METAR CYQU 101600Z 32002KT 5SM -SN FEW015 SCT032 BKN100 M29/M32 A3006
RMK SF2SC2AC1 SLP265=
SPECI CYQU 101554Z 30002KT 5SM -SN BKN032 BKN100 M29/M32 A3006 RMK
SC5AC1 SLP266=
METAR CYQU 101500Z 31003KT 7SM IC BKN032 OVC100 M29/M32 A3006 RMK
SC5AC3 SLP265=
SPECI CYQU 101406Z 25002KT 10SM IC BKN032 OVC095 M30/M33 A3006 RMK
ST5AC3 SLP269=
METAR CYQU 101400Z VRB02KT 15SM BKN032 OVC095 M30/M34 A3007 RMK
ST6AC2 SLP270=

TAF AMD CYQU 101410Z 1014/1101 VRB03KT P6SM BKN030 OVC100 TEMPO
1014/1017 4SM IC BKN020 OVC090
FM101700 28008KT P6SM -SN SCT020 BKN050 TEMPO 1017/1023 3SM -SN
OVC020
FM102300 27008KT P6SM SCT030 BKN100
RMK NXT FCST BY 101900Z=
Your time UTC time
Weather data provided by Environment Canada and NAV CANADA